Time;durP1;ratioP1;P1;durP2;ratioP2;P2;SDS_P1;SDS_P2;PMS_P1;PMS_P2;Temp;Humidity;BMP_temperature;BMP_pressure;BME280_temperature;BME280_humidity;BME280_pressure;Samples;Min_cycle;Max_cycle;Signal;HPM_P1;HPM_P2
2022/01/05 00:00:56;;;;;;;3.40;1.40;;;19.70;54.30;;;;;;4444350;32;20241;-77
2022/01/05 00:03:22;;;;;;;4.45;1.30;;;19.70;54.40;;;;;;4443113;32;20231;-77
2022/01/05 00:05:47;;;;;;;7.03;1.20;;;19.60;54.30;;;;;;4443667;32;20105;-77
2022/01/05 00:08:14;;;;;;;6.20;1.45;;;19.60;54.30;;;;;;4439985;32;20465;-77
2022/01/05 00:10:40;;;;;;;4.47;1.30;;;19.60;54.30;;;;;;4444867;32;20096;-77
2022/01/05 00:13:06;;;;;;;4.90;1.23;;;19.60;54.30;;;;;;4444293;32;20085;-77
2022/01/05 00:15:32;;;;;;;7.25;1.67;;;19.60;54.30;;;;;;4443306;32;20521;-77
2022/01/05 00:17:58;;;;;;;5.13;1.08;;;19.50;55.20;;;;;;4444951;32;20081;-77
2022/01/05 00:20:25;;;;;;;4.97;1.20;;;19.50;54.30;;;;;;4445103;32;20162;-77
2022/01/05 00:22:50;;;;;;;6.63;1.40;;;19.50;54.30;;;;;;4444856;32;20592;-77
2022/01/05 00:25:17;;;;;;;7.07;1.27;;;19.50;54.20;;;;;;4443890;32;20643;-77
2022/01/05 00:27:42;;;;;;;5.90;1.15;;;19.50;54.30;;;;;;4443367;32;20070;-77
2022/01/05 00:30:09;;;;;;;6.18;1.17;;;19.50;54.30;;;;;;4444258;32;20074;-77
2022/01/05 00:32:35;;;;;;;5.13;1.40;;;19.40;54.20;;;;;;4444821;32;20097;-78
2022/01/05 00:35:01;;;;;;;5.15;1.17;;;19.40;54.30;;;;;;4443718;32;20091;-77
2022/01/05 00:37:27;;;;;;;5.43;1.30;;;19.40;54.20;;;;;;4443940;32;20144;-77
2022/01/05 00:39:53;;;;;;;3.55;1.25;;;19.40;54.30;;;;;;4444816;32;20470;-77
2022/01/05 00:42:19;;;;;;;3.88;1.13;;;19.40;54.30;;;;;;4445023;32;20081;-77
2022/01/05 00:44:45;;;;;;;5.72;1.15;;;19.40;54.30;;;;;;4444820;32;20491;-77
2022/01/05 00:47:11;;;;;;;13.38;1.33;;;19.30;54.30;;;;;;4444751;32;20102;-77
2022/01/05 00:49:36;;;;;;;5.00;1.17;;;19.30;54.30;;;;;;4444562;32;20082;-78
2022/01/05 00:52:03;;;;;;;5.00;1.35;;;19.30;54.30;;;;;;4444677;32;20148;-77
2022/01/05 00:54:29;;;;;;;3.05;1.10;;;19.30;54.30;;;;;;4444916;32;20070;-77
2022/01/05 00:56:55;;;;;;;5.50;1.23;;;19.20;54.30;;;;;;4444508;32;20215;-77
2022/01/05 00:59:20;;;;;;;4.60;1.20;;;19.20;54.30;;;;;;4444818;32;20475;-77
2022/01/05 01:01:46;;;;;;;2.80;1.05;;;19.20;54.30;;;;;;4444417;32;20080;-77
2022/01/05 01:04:12;;;;;;;4.60;1.13;;;19.20;54.30;;;;;;4444671;32;20532;-77
2022/01/05 01:06:39;;;;;;;3.08;1.02;;;19.20;54.30;;;;;;4443545;32;20082;-78
2022/01/05 01:09:05;;;;;;;4.13;0.95;;;19.20;54.30;;;;;;4444913;32;20071;-77
2022/01/05 01:11:31;;;;;;;4.43;1.33;;;19.20;54.30;;;;;;4444800;32;20085;-77
2022/01/05 01:13:57;;;;;;;5.55;1.35;;;19.20;54.20;;;;;;4444298;32;20495;-77
2022/01/05 01:16:24;;;;;;;6.25;1.30;;;19.10;54.20;;;;;;4443378;32;20120;-77
2022/01/05 01:18:51;;;;;;;3.85;1.00;;;19.10;54.20;;;;;;4444168;32;20527;-78
2022/01/05 01:21:17;;;;;;;3.45;1.00;;;19.10;54.20;;;;;;4444506;32;20157;-77
2022/01/05 01:23:54;;;;;;;4.82;1.10;;;19.10;54.30;;;;;;4443404;32;20141;-77
2022/01/05 01:26:21;;;;;;;3.45;1.20;;;19.10;54.30;;;;;;4444806;32;20228;-77
2022/01/05 01:28:47;;;;;;;2.33;0.90;;;19.10;54.40;;;;;;4443893;32;20503;-77
2022/01/05 01:31:13;;;;;;;3.33;1.17;;;19.10;54.40;;;;;;4444164;32;20512;-77
2022/01/05 01:33:39;;;;;;;4.20;1.27;;;19.10;54.40;;;;;;4444411;32;20058;-77
2022/01/05 01:36:05;;;;;;;3.10;1.25;;;19.00;54.40;;;;;;4444102;32;20780;-77
2022/01/05 01:38:31;;;;;;;3.65;1.30;;;19.00;54.50;;;;;;4444381;32;20078;-77
2022/01/05 01:40:57;;;;;;;6.40;1.20;;;19.00;54.50;;;;;;4442847;32;20409;-77
2022/01/05 01:43:23;;;;;;;5.18;1.33;;;19.00;54.50;;;;;;4444280;32;20526;-77
2022/01/05 01:45:49;;;;;;;3.95;1.00;;;19.00;54.50;;;;;;4443706;32;20074;-78
2022/01/05 01:48:16;;;;;;;3.15;0.82;;;19.00;54.50;;;;;;4444389;32;20122;-77
2022/01/05 01:50:42;;;;;;;3.70;1.30;;;19.00;54.50;;;;;;4444160;32;20073;-77
2022/01/05 01:53:08;;;;;;;4.35;1.10;;;19.00;54.50;;;;;;4443677;32;20070;-77
2022/01/05 01:55:35;;;;;;;4.18;0.90;;;19.00;54.50;;;;;;4443334;32;20090;-77
2022/01/05 01:58:01;;;;;;;6.72;1.30;;;18.90;54.40;;;;;;4443626;32;20092;-77
2022/01/05 02:00:29;;;;;;;3.45;1.00;;;18.90;54.40;;;;;;4444213;32;20082;-77
2022/01/05 02:02:58;;;;;;;3.25;1.00;;;18.90;54.40;;;;;;4443871;32;20092;-77
2022/01/05 02:05:24;;;;;;;3.35;1.25;;;18.90;54.40;;;;;;4444243;32;20082;-78
2022/01/05 02:07:51;;;;;;;3.13;0.98;;;18.90;54.40;;;;;;4443652;32;20133;-78
2022/01/05 02:10:17;;;;;;;3.55;1.00;;;18.90;54.30;;;;;;4444176;32;20109;-77
2022/01/05 02:12:44;;;;;;;2.78;1.10;;;18.90;54.20;;;;;;4443284;32;20140;-77
2022/01/05 02:15:10;;;;;;;3.78;1.10;;;18.90;54.20;;;;;;4444182;32;20188;-77
2022/01/05 02:17:52;;;;;;;4.72;1.00;;;18.80;54.10;;;;;;4447332;32;20066;-77
2022/01/05 02:20:22;;;;;;;3.58;1.13;;;18.80;54.00;;;;;;4447423;32;20128;-77
2022/01/05 02:22:48;;;;;;;4.32;1.27;;;18.80;54.10;;;;;;4445860;32;20496;-77
2022/01/05 02:25:14;;;;;;;5.53;1.30;;;18.80;54.00;;;;;;4446808;32;20429;-77
2022/01/05 02:27:41;;;;;;;5.07;1.20;;;18.80;54.00;;;;;;4447049;32;20458;-77
2022/01/05 02:30:10;;;;;;;6.38;1.27;;;18.80;54.00;;;;;;4446537;32;20077;-77
2022/01/05 02:32:36;;;;;;;3.45;0.98;;;18.80;53.90;;;;;;4447049;32;20264;-77
2022/01/05 02:35:03;;;;;;;3.13;1.15;;;18.70;53.80;;;;;;4446461;32;20424;-77
2022/01/05 02:37:29;;;;;;;4.22;1.27;;;18.70;53.90;;;;;;4445709;32;20223;-77
2022/01/05 02:39:55;;;;;;;6.15;1.50;;;18.70;53.80;;;;;;4446836;32;20459;-78
2022/01/05 02:42:28;;;;;;;3.88;1.13;;;18.70;53.70;;;;;;4446563;32;20416;-77
2022/01/05 02:44:57;;;;;;;3.85;0.93;;;18.70;53.70;;;;;;4446944;32;20124;-78
2022/01/05 02:47:23;;;;;;;2.95;0.90;;;18.70;53.70;;;;;;4445520;32;20078;-77
2022/01/05 02:49:49;;;;;;;2.55;1.13;;;18.70;53.70;;;;;;4445406;32;20093;-77
2022/01/05 02:52:15;;;;;;;4.60;1.30;;;18.70;53.70;;;;;;4446301;32;20243;-77
2022/01/05 02:54:42;;;;;;;6.43;1.60;;;18.70;53.60;;;;;;4445481;32;20371;-77
2022/01/05 02:57:08;;;;;;;4.63;1.38;;;18.60;53.60;;;;;;4445066;32;20141;-77
2022/01/05 02:59:34;;;;;;;2.42;1.00;;;18.60;53.60;;;;;;4445402;32;20062;-77
2022/01/05 03:02:00;;;;;;;4.35;1.17;;;18.60;53.60;;;;;;4444791;32;20109;-77
2022/01/05 03:04:29;;;;;;;5.38;1.25;;;18.60;53.50;;;;;;4432466;32;20098;-77
2022/01/05 03:06:54;;;;;;;4.25;1.17;;;18.60;53.60;;;;;;4446268;32;20118;-77
2022/01/05 03:09:20;;;;;;;5.05;1.13;;;18.60;53.60;;;;;;4445035;32;20413;-77
2022/01/05 03:11:46;;;;;;;4.40;1.40;;;18.60;53.50;;;;;;4444760;32;20070;-77
2022/01/05 03:14:12;;;;;;;4.63;1.40;;;18.60;53.50;;;;;;4446046;32;20404;-77
2022/01/05 03:16:38;;;;;;;3.72;1.15;;;18.60;53.50;;;;;;4444926;32;20140;-78
2022/01/05 03:19:05;;;;;;;3.67;1.05;;;18.60;53.50;;;;;;4441313;32;20157;-77
2022/01/05 03:21:31;;;;;;;3.38;1.10;;;18.60;53.50;;;;;;4430595;32;20485;-77
2022/01/05 03:23:57;;;;;;;3.90;1.52;;;18.50;53.40;;;;;;4430626;32;20568;-77
2022/01/05 03:26:23;;;;;;;3.83;1.30;;;18.50;53.40;;;;;;4430016;32;20124;-77
2022/01/05 03:28:48;;;;;;;3.42;1.33;;;18.50;53.30;;;;;;4430479;32;20055;-76
2022/01/05 03:31:14;;;;;;;3.83;1.25;;;18.50;53.30;;;;;;4430341;32;20125;-77
2022/01/05 03:33:40;;;;;;;5.38;1.65;;;18.50;53.30;;;;;;4430404;32;20075;-77
2022/01/05 03:36:06;;;;;;;4.22;1.27;;;18.50;53.20;;;;;;4441974;32;20192;-78
2022/01/05 03:38:32;;;;;;;5.03;1.05;;;18.50;53.30;;;;;;4430364;32;20070;-78
2022/01/05 03:40:58;;;;;;;3.25;1.10;;;18.40;53.10;;;;;;4454927;32;20091;-78
2022/01/05 03:43:24;;;;;;;3.28;1.00;;;18.50;53.20;;;;;;4430209;32;20096;-78
2022/01/05 03:45:51;;;;;;;4.53;1.25;;;18.50;53.20;;;;;;4442331;32;20081;-77
2022/01/05 03:48:18;;;;;;;6.50;1.65;;;18.40;53.10;;;;;;4429888;32;20401;-77
2022/01/05 03:50:45;;;;;;;5.15;1.30;;;18.40;53.10;;;;;;4430194;32;20639;-77
2022/01/05 03:53:12;;;;;;;4.53;1.20;;;18.40;53.10;;;;;;4429737;32;20082;-77
2022/01/05 03:55:40;;;;;;;3.60;1.35;;;18.40;53.10;;;;;;4430162;32;20497;-77
2022/01/05 03:58:07;;;;;;;4.78;1.60;;;18.40;53.10;;;;;;4428867;32;20212;-79
2022/01/05 04:00:37;;;;;;;4.07;1.50;;;18.40;53.10;;;;;;4430347;32;20134;-77
2022/01/05 04:03:03;;;;;;;5.55;1.65;;;18.40;53.10;;;;;;4429973;32;20094;-77
2022/01/05 04:05:29;;;;;;;4.43;1.30;;;18.40;53.10;;;;;;4429636;32;20105;-78
2022/01/05 04:07:56;;;;;;;5.45;1.20;;;18.30;53.00;;;;;;4441596;32;20165;-77
2022/01/05 04:10:22;;;;;;;5.75;1.40;;;18.40;53.10;;;;;;4429252;32;20081;-78
2022/01/05 04:12:48;;;;;;;4.50;1.30;;;18.30;53.00;;;;;;4429933;32;20094;-77
2022/01/05 04:15:15;;;;;;;5.82;1.73;;;18.30;53.00;;;;;;4429241;32;20472;-77
2022/01/05 04:17:41;;;;;;;4.03;1.40;;;18.30;53.00;;;;;;4429620;32;20086;-77
2022/01/05 04:20:09;;;;;;;7.30;1.65;;;18.30;53.00;;;;;;4441451;32;20220;-78
2022/01/05 04:22:35;;;;;;;3.95;1.38;;;18.30;53.00;;;;;;4429866;32;20252;-77
2022/01/05 04:25:01;;;;;;;4.50;1.10;;;18.30;53.00;;;;;;4429748;32;20167;-77
2022/01/05 04:27:27;;;;;;;5.95;1.55;;;18.30;53.00;;;;;;4440992;32;20081;-77
2022/01/05 04:29:52;;;;;;;3.47;1.00;;;18.30;53.00;;;;;;4441562;32;20098;-77
2022/01/05 04:32:18;;;;;;;4.38;1.38;;;18.30;53.00;;;;;;4429187;32;20390;-78
2022/01/05 04:34:44;;;;;;;6.53;1.70;;;18.20;52.90;;;;;;4429622;32;20525;-77
2022/01/05 04:37:10;;;;;;;4.35;1.38;;;18.20;52.90;;;;;;4442085;32;20078;-78
2022/01/05 04:39:36;;;;;;;4.07;1.60;;;18.20;52.90;;;;;;4430094;32;20493;-77
2022/01/05 04:42:03;;;;;;;4.53;1.30;;;18.20;52.90;;;;;;4443260;32;20070;-77
2022/01/05 04:44:29;;;;;;;3.97;1.33;;;18.20;52.90;;;;;;4443502;32;20109;-78
2022/01/05 04:46:55;;;;;;;5.80;1.30;;;18.20;52.90;;;;;;4428578;32;20114;-77
2022/01/05 04:49:21;;;;;;;2.63;1.17;;;18.20;52.90;;;;;;4442437;32;20082;-77
2022/01/05 04:51:47;;;;;;;5.80;1.42;;;18.20;52.90;;;;;;4429112;32;20220;-77
2022/01/05 04:54:13;;;;;;;3.25;1.25;;;18.20;52.90;;;;;;4459612;32;20085;-78
2022/01/05 04:56:39;;;;;;;3.78;1.30;;;18.10;52.90;;;;;;4443183;32;20147;-77
2022/01/05 04:59:05;;;;;;;3.67;1.45;;;18.10;53.00;;;;;;4443140;32;20516;-77
2022/01/05 05:01:31;;;;;;;5.22;1.65;;;18.10;52.90;;;;;;4442704;32;20086;-77
2022/01/05 05:03:57;;;;;;;5.88;1.40;;;18.10;53.00;;;;;;4442303;32;20074;-77
2022/01/05 05:06:23;;;;;;;3.40;1.15;;;18.10;53.00;;;;;;4441693;32;20386;-78
2022/01/05 05:08:50;;;;;;;4.25;1.38;;;18.10;52.90;;;;;;4442995;32;20136;-77
2022/01/05 05:11:17;;;;;;;5.10;1.50;;;18.10;53.00;;;;;;4440522;32;20078;-78
2022/01/05 05:13:43;;;;;;;5.97;1.45;;;18.10;53.00;;;;;;4442898;32;20292;-77
2022/01/05 05:16:09;;;;;;;3.42;1.33;;;18.10;53.00;;;;;;4441692;32;20805;-78
2022/01/05 05:18:35;;;;;;;3.15;0.93;;;18.10;53.00;;;;;;4442592;32;20974;-77
2022/01/05 05:21:02;;;;;;;3.08;1.20;;;18.10;53.00;;;;;;4443314;32;20078;-77
2022/01/05 05:23:28;;;;;;;3.25;1.10;;;18.10;53.00;;;;;;4444012;32;20485;-77
2022/01/05 05:25:55;;;;;;;3.97;1.35;;;18.00;52.90;;;;;;4444202;32;20074;-77
2022/01/05 05:28:21;;;;;;;4.10;1.15;;;18.00;52.90;;;;;;4443870;32;20161;-78
2022/01/05 05:30:46;;;;;;;4.70;1.42;;;18.10;53.00;;;;;;4443032;32;20066;-78
2022/01/05 05:33:12;;;;;;;4.85;1.15;;;18.00;52.90;;;;;;4442976;32;20070;-78
2022/01/05 05:35:42;;;;;;;3.85;1.05;;;18.00;53.00;;;;;;4442716;32;20256;-78
2022/01/05 05:38:11;;;;;;;4.97;1.30;;;18.00;53.00;;;;;;4443298;32;20070;-78
2022/01/05 05:40:41;;;;;;;3.60;1.20;;;18.00;53.00;;;;;;4444155;32;20188;-78
2022/01/05 05:43:07;;;;;;;5.63;1.40;;;18.00;52.90;;;;;;4444269;32;20271;-78
2022/01/05 05:45:33;;;;;;;3.50;1.35;;;18.00;52.90;;;;;;4443853;32;20144;-78
2022/01/05 05:47:59;;;;;;;4.63;1.23;;;18.00;52.90;;;;;;4444357;32;20424;-78
2022/01/05 05:50:25;;;;;;;3.83;1.23;;;18.00;52.80;;;;;;4446806;32;20200;-78
2022/01/05 05:52:50;;;;;;;4.85;1.35;;;18.00;52.90;;;;;;4446230;32;20066;-78
2022/01/05 05:55:16;;;;;;;4.22;1.48;;;17.90;52.80;;;;;;4447252;32;20283;-78
2022/01/05 05:57:43;;;;;;;4.90;1.45;;;17.90;52.80;;;;;;4445938;32;20103;-78
2022/01/05 06:00:10;;;;;;;5.70;1.65;;;17.90;52.80;;;;;;4447223;32;20485;-78
2022/01/05 06:02:36;;;;;;;3.42;1.30;;;17.90;52.70;;;;;;4445726;32;20227;-78
2022/01/05 06:05:03;;;;;;;4.03;1.23;;;17.90;52.70;;;;;;4447366;32;20084;-78
2022/01/05 06:07:29;;;;;;;3.38;1.40;;;17.90;52.70;;;;;;4446391;32;20441;-78
2022/01/05 06:09:55;;;;;;;3.88;1.27;;;17.90;52.70;;;;;;4432900;32;20114;-78
2022/01/05 06:12:21;;;;;;;2.88;1.30;;;17.90;52.70;;;;;;4446990;32;20054;-78
2022/01/05 06:14:47;;;;;;;4.63;1.33;;;17.80;52.70;;;;;;4445477;32;20089;-78
2022/01/05 06:17:13;;;;;;;4.70;1.42;;;17.90;52.70;;;;;;4445017;32;20074;-78
2022/01/05 06:19:39;;;;;;;3.97;1.40;;;17.90;52.70;;;;;;4445524;32;20078;-78
2022/01/05 06:22:05;;;;;;;3.88;1.38;;;17.80;52.70;;;;;;4445785;32;20118;-77
2022/01/05 06:24:31;;;;;;;5.90;1.35;;;17.80;52.70;;;;;;4445446;32;20378;-78
2022/01/05 06:26:57;;;;;;;3.75;1.30;;;17.80;52.70;;;;;;4446731;32;20235;-77
2022/01/05 06:29:23;;;;;;;8.00;1.77;;;17.80;52.70;;;;;;4446686;32;20054;-78
2022/01/05 06:31:48;;;;;;;3.88;1.17;;;17.80;52.70;;;;;;4445300;32;20224;-78
2022/01/05 06:34:14;;;;;;;4.43;1.60;;;17.80;52.70;;;;;;4446421;32;20082;-78
2022/01/05 06:36:40;;;;;;;4.32;1.48;;;17.80;52.70;;;;;;4446609;32;20212;-78
2022/01/05 06:39:06;;;;;;;6.57;1.50;;;17.80;52.80;;;;;;4445680;32;20089;-78
2022/01/05 06:41:32;;;;;;;3.58;1.13;;;17.70;52.60;;;;;;4446155;32;20200;-78
2022/01/05 06:43:58;;;;;;;3.67;1.20;;;17.70;52.60;;;;;;4445219;32;20159;-78
2022/01/05 06:46:23;;;;;;;2.75;1.08;;;17.80;52.80;;;;;;4445112;32;20071;-78
2022/01/05 06:48:49;;;;;;;4.88;1.10;;;17.80;52.80;;;;;;4446268;32;20086;-78
2022/01/05 06:51:15;;;;;;;4.60;1.45;;;17.70;52.70;;;;;;4446448;32;20114;-77
2022/01/05 06:53:41;;;;;;;3.42;1.05;;;17.70;52.70;;;;;;4446147;32;20066;-77
2022/01/05 06:56:07;;;;;;;4.20;1.27;;;17.70;52.80;;;;;;4446334;32;20094;-77
2022/01/05 06:58:33;;;;;;;4.10;1.30;;;17.70;52.80;;;;;;4445020;32;20077;-78
2022/01/05 07:01:00;;;;;;;2.92;0.98;;;17.70;52.80;;;;;;4444642;32;20224;-77
2022/01/05 07:03:26;;;;;;;3.85;1.35;;;17.70;52.80;;;;;;4445335;32;20130;-78
2022/01/05 07:05:51;;;;;;;4.38;1.10;;;17.70;52.80;;;;;;4446107;32;20496;-78
2022/01/05 07:08:19;;;;;;;3.97;1.05;;;17.70;52.90;;;;;;4432232;32;20129;-78
2022/01/05 07:10:45;;;;;;;2.67;0.90;;;17.60;52.90;;;;;;4444317;32;20129;-78
2022/01/05 07:13:11;;;;;;;3.63;1.20;;;17.70;53.00;;;;;;4442955;32;20143;-78
2022/01/05 07:15:37;;;;;;;3.58;0.98;;;17.60;52.90;;;;;;4443651;32;20491;-77
2022/01/05 07:18:03;;;;;;;5.38;1.40;;;17.60;52.90;;;;;;4445310;32;20114;-78
2022/01/05 07:20:31;;;;;;;4.88;1.10;;;17.60;53.00;;;;;;4445387;32;20089;-78
2022/01/05 07:22:58;;;;;;;3.35;1.10;;;17.60;53.00;;;;;;4432389;32;20098;-78
2022/01/05 07:25:24;;;;;;;2.80;0.98;;;17.60;53.00;;;;;;4445131;32;20207;-77
2022/01/05 07:27:50;;;;;;;3.55;1.30;;;17.60;53.00;;;;;;4445411;32;20544;-77
2022/01/05 07:30:15;;;;;;;4.25;1.50;;;17.60;53.00;;;;;;4444892;32;20533;-78
2022/01/05 07:32:41;;;;;;;4.03;1.15;;;17.60;53.00;;;;;;4444493;32;20066;-78
2022/01/05 07:35:08;;;;;;;3.33;1.15;;;17.60;53.00;;;;;;4445832;32;20456;-77
2022/01/05 07:37:34;;;;;;;5.80;1.25;;;17.60;53.10;;;;;;4444732;32;20066;-79
2022/01/05 07:39:59;;;;;;;3.20;1.15;;;17.50;53.00;;;;;;4444575;32;20417;-77
2022/01/05 07:42:27;;;;;;;4.07;1.05;;;17.50;53.00;;;;;;4445733;32;20160;-77
2022/01/05 07:44:53;;;;;;;4.22;1.30;;;17.60;53.10;;;;;;4445312;32;20066;-77
2022/01/05 07:47:19;;;;;;;3.40;1.02;;;17.50;53.00;;;;;;4445860;32;20164;-77
2022/01/05 07:49:47;;;;;;;2.65;0.90;;;17.60;53.10;;;;;;4445244;32;20105;-77
2022/01/05 07:52:12;;;;;;;4.85;1.13;;;17.60;53.20;;;;;;4445855;32;20473;-77
2022/01/05 07:54:38;;;;;;;4.72;1.23;;;17.50;53.10;;;;;;4443981;32;20393;-78
2022/01/05 07:57:04;;;;;;;3.78;0.93;;;17.50;53.10;;;;;;4444480;32;20085;-77
2022/01/05 07:59:30;;;;;;;4.18;1.30;;;17.50;53.20;;;;;;4445722;32;20082;-77
2022/01/05 08:01:56;;;;;;;5.30;1.40;;;17.50;53.20;;;;;;4443882;32;20086;-77
2022/01/05 08:04:22;;;;;;;2.75;0.90;;;17.50;53.20;;;;;;4445777;32;20472;-78
2022/01/05 08:06:48;;;;;;;3.75;1.10;;;17.50;53.30;;;;;;4445087;32;20055;-78
2022/01/05 08:09:14;;;;;;;4.05;1.05;;;17.40;53.20;;;;;;4444209;32;20062;-77
2022/01/05 08:11:39;;;;;;;4.80;1.30;;;17.50;53.30;;;;;;4444513;32;20212;-78
2022/01/05 08:14:08;;;;;;;4.45;1.25;;;17.40;53.30;;;;;;4445360;32;20626;-78
2022/01/05 08:16:34;;;;;;;4.30;1.25;;;17.50;53.30;;;;;;4444045;32;20096;-82
2022/01/05 08:19:00;;;;;;;4.07;1.20;;;17.50;53.30;;;;;;4445309;32;20152;-82
2022/01/05 08:21:26;;;;;;;4.65;1.00;;;17.50;53.00;;;;;;4445371;32;20138;-82
2022/01/05 08:23:52;;;;;;;4.03;1.35;;;17.50;52.80;;;;;;4431353;32;20108;-83
2022/01/05 08:26:18;;;;;;;8.45;1.73;;;17.40;52.60;;;;;;4444126;32;20493;-83
2022/01/05 08:28:44;;;;;;;9.32;1.50;;;17.40;53.20;;;;;;4443620;32;20062;-81
2022/01/05 08:32:15;;;;;;;11.35;1.60;;;17.40;52.40;;;;;;4577014;31;20148;-63
2022/01/05 08:34:41;;;;;;;8.32;1.83;;;17.40;52.70;;;;;;4559216;31;20216;-64
2022/01/05 08:37:08;;;;;;;7.40;1.60;;;17.30;52.60;;;;;;4559750;31;20232;-64
2022/01/05 08:39:34;;;;;;;7.55;2.03;;;17.30;52.60;;;;;;4559735;31;20487;-63
2022/01/05 08:42:05;;;;;;;5.22;1.40;;;17.30;52.70;;;;;;4559362;31;20132;-64
2022/01/05 08:44:30;;;;;;;9.45;2.35;;;17.30;52.80;;;;;;4559591;31;20199;-64
2022/01/05 08:46:56;;;;;;;6.82;1.50;;;17.30;52.90;;;;;;4531122;31;20131;-63
2022/01/05 08:49:22;;;;;;;5.15;1.40;;;17.30;52.90;;;;;;4549854;31;20108;-64
2022/01/05 08:51:48;;;;;;;6.97;1.77;;;17.30;53.00;;;;;;4542632;31;20135;-65
2022/01/05 08:54:14;;;;;;;6.95;1.48;;;17.30;52.90;;;;;;4534784;31;20127;-64
2022/01/05 08:56:39;;;;;;;8.05;1.98;;;17.30;53.00;;;;;;4523463;31;20178;-64
2022/01/05 08:59:05;;;;;;;5.18;1.30;;;17.30;53.00;;;;;;4534899;31;20124;-64
2022/01/05 09:01:31;;;;;;;8.95;1.50;;;17.30;52.90;;;;;;4536197;31;20131;-63
2022/01/05 09:03:57;;;;;;;4.53;1.60;;;17.30;52.90;;;;;;4542598;31;20104;-63
2022/01/05 09:06:23;;;;;;;5.70;1.65;;;17.30;52.90;;;;;;4502351;31;20132;-63
2022/01/05 09:08:49;;;;;;;6.57;1.70;;;17.30;53.00;;;;;;4542495;31;20128;-62
2022/01/05 09:11:15;;;;;;;7.78;2.30;;;17.30;53.10;;;;;;4528707;31;20116;-64
2022/01/05 09:13:42;;;;;;;7.32;1.67;;;17.30;53.10;;;;;;4528402;31;20269;-63
2022/01/05 09:16:09;;;;;;;7.82;1.73;;;17.30;53.20;;;;;;4528124;31;20146;-64
2022/01/05 09:18:35;;;;;;;9.18;1.80;;;17.30;53.10;;;;;;4515228;31;20127;-63
2022/01/05 09:21:01;;;;;;;8.10;1.67;;;17.30;53.10;;;;;;4527953;31;20278;-63
2022/01/05 09:23:26;;;;;;;4.63;1.38;;;17.30;53.20;;;;;;4528598;31;20182;-64
2022/01/05 09:25:52;;;;;;;4.88;1.45;;;17.30;53.20;;;;;;4527852;31;20138;-63
2022/01/05 09:28:18;;;;;;;7.85;1.92;;;17.30;53.10;;;;;;4543002;31;20127;-64
2022/01/05 09:30:46;;;;;;;5.68;1.50;;;17.30;52.90;;;;;;4527788;31;20223;-63
2022/01/05 09:33:15;;;;;;;5.90;1.58;;;17.30;52.80;;;;;;4542018;31;20587;-64
2022/01/05 09:35:43;;;;;;;7.28;1.40;;;17.40;52.80;;;;;;4527532;31;20240;-64
2022/01/05 09:38:33;;;;;;;7.57;2.10;;;17.50;52.80;;;;;;4527823;31;20128;-64
2022/01/05 09:43:53;;;;;;;8.32;1.85;;;17.60;52.70;;;;;;4531432;31;20175;-63
2022/01/05 09:46:32;;;;;;;5.88;1.50;;;17.60;52.40;;;;;;4530594;31;20647;-64
2022/01/05 09:49:09;;;;;;;7.75;1.63;;;17.70;52.30;;;;;;4531734;31;20136;-63
2022/01/05 09:51:39;;;;;;;7.72;1.73;;;17.80;52.00;;;;;;4531298;31;20128;-64
2022/01/05 09:54:06;;;;;;;7.10;1.50;;;18.00;51.80;;;;;;4531634;31;20150;-64
2022/01/05 09:56:33;;;;;;;8.63;1.63;;;18.10;51.60;;;;;;4530284;31;20151;-63
2022/01/05 09:59:01;;;;;;;4.05;1.23;;;18.20;51.40;;;;;;4503594;31;20116;-63
2022/01/05 10:01:36;;;;;;;8.05;1.55;;;18.30;51.30;;;;;;4533411;31;20158;-63
2022/01/05 10:04:05;;;;;;;4.78;1.65;;;18.40;51.20;;;;;;4531011;31;20186;-62
2022/01/05 10:06:36;;;;;;;6.78;1.75;;;18.50;51.00;;;;;;4517359;31;20254;-63
2022/01/05 10:09:02;;;;;;;7.97;1.50;;;18.60;50.80;;;;;;4530462;31;20151;-65
2022/01/05 10:11:29;;;;;;;7.95;1.70;;;18.70;50.70;;;;;;4532783;31;20213;-66
2022/01/05 10:13:55;;;;;;;7.28;1.67;;;18.90;50.50;;;;;;4530616;31;20151;-65
2022/01/05 10:16:21;;;;;;;8.02;1.60;;;19.00;50.40;;;;;;4490917;31;20514;-64
2022/01/05 10:18:47;;;;;;;6.90;1.85;;;19.10;50.20;;;;;;4530711;31;21669;-64
2022/01/05 10:21:14;;;;;;;5.57;1.60;;;19.20;50.10;;;;;;4530562;31;20116;-64
2022/01/05 10:23:48;;;;;;;6.45;1.67;;;19.20;49.80;;;;;;4518059;31;20124;-64
2022/01/05 10:26:21;;;;;;;7.47;1.52;;;19.30;49.70;;;;;;4530484;31;20460;-64
2022/01/05 10:28:48;;;;;;;9.07;2.08;;;19.50;49.60;;;;;;4531055;31;20132;-65
2022/01/05 10:31:27;;;;;;;5.85;1.98;;;19.50;49.40;;;;;;4530635;31;20190;-63
2022/01/05 10:33:53;;;;;;;4.50;1.40;;;19.60;49.50;;;;;;4530865;31;20489;-63
2022/01/05 10:36:20;;;;;;;8.15;1.90;;;19.70;49.30;;;;;;4530887;31;20143;-64
2022/01/05 10:39:04;;;;;;;6.78;1.90;;;19.80;49.10;;;;;;4516168;31;20144;-65
2022/01/05 10:41:31;;;;;;;;;;;19.90;49.00;;;;;;4531684;31;20171;-63
2022/01/05 10:44:08;;;;;;;9.43;2.13;;;20.00;48.90;;;;;;4530624;31;20024;-62
2022/01/05 10:46:36;;;;;;;9.55;1.60;;;20.00;48.80;;;;;;4515770;31;20281;-64
2022/01/05 10:49:05;;;;;;;6.93;1.98;;;20.10;48.70;;;;;;4530493;31;20128;-63
2022/01/05 10:51:33;;;;;;;6.97;1.70;;;20.10;48.60;;;;;;4515281;31;20249;-63
2022/01/05 10:54:12;;;;;;;4.97;1.50;;;20.20;48.50;;;;;;4526487;31;20191;-63
2022/01/05 10:56:38;;;;;;;8.18;1.63;;;20.30;48.40;;;;;;4529817;31;20135;-63
2022/01/05 10:59:05;;;;;;;9.68;1.92;;;20.40;48.30;;;;;;4519192;31;20274;-63
2022/01/05 11:01:31;;;;;;;7.53;1.83;;;20.40;48.10;;;;;;4538573;31;20126;-63
2022/01/05 11:03:58;;;;;;;6.78;1.90;;;20.50;48.00;;;;;;4545648;31;20599;-63
2022/01/05 11:06:24;;;;;;;6.82;1.52;;;20.50;47.80;;;;;;4545928;31;20254;-63
2022/01/05 11:08:55;;;;;;;7.50;1.55;;;20.60;47.90;;;;;;4545655;31;20576;-63
2022/01/05 11:11:49;;;;;;;6.88;1.75;;;20.60;47.60;;;;;;4538770;31;20139;-62
2022/01/05 11:14:18;;;;;;;11.85;2.28;;;20.70;47.50;;;;;;4529442;31;20131;-62
2022/01/05 11:16:46;;;;;;;9.73;2.17;;;20.80;47.40;;;;;;4518432;31;20123;-64
2022/01/05 11:19:22;;;;;;;10.15;2.28;;;20.80;47.30;;;;;;4530166;31;20698;-63
2022/01/05 11:22:01;;;;;;;10.10;2.33;;;20.90;47.20;;;;;;4530105;31;20287;-64
2022/01/05 11:24:30;;;;;;;7.78;1.95;;;20.90;47.10;;;;;;4529978;31;20139;-64
2022/01/05 11:26:57;;;;;;;8.25;1.80;;;20.90;47.00;;;;;;4515610;31;20140;-65
2022/01/05 11:29:23;;;;;;;6.53;2.10;;;20.90;47.00;;;;;;4502084;31;20224;-65
2022/01/05 11:31:49;;;;;;;9.30;2.13;;;20.90;47.20;;;;;;4529982;31;20128;-65
2022/01/05 11:34:15;;;;;;;9.73;2.47;;;20.80;47.20;;;;;;4529486;31;20154;-67
2022/01/05 11:36:43;;;;;;;8.75;2.08;;;20.80;47.30;;;;;;4515908;31;20140;-65
2022/01/05 11:39:09;;;;;;;8.75;2.42;;;20.60;47.40;;;;;;4529584;31;20145;-65
2022/01/05 11:41:41;;;;;;;12.38;2.55;;;20.60;47.50;;;;;;4529683;31;20581;-65
2022/01/05 11:44:07;;;;;;;8.23;2.25;;;20.40;47.60;;;;;;4530001;31;20127;-65
2022/01/05 11:46:35;;;;;;;11.13;2.70;;;20.30;47.80;;;;;;4529664;31;20154;-65
2022/01/05 11:49:10;;;;;;;13.70;2.47;;;20.20;48.00;;;;;;4530014;31;20123;-64
2022/01/05 11:51:42;;;;;;;10.10;2.20;;;20.10;48.30;;;;;;4515635;31;20166;-64
2022/01/05 11:54:33;;;;;;;13.48;2.55;;;20.10;49.40;;;;;;4530067;31;20201;-64
2022/01/05 11:57:09;;;;;;;8.20;2.17;;;20.10;48.80;;;;;;4530058;31;20179;-64
2022/01/05 11:59:39;;;;;;;10.18;2.45;;;20.00;48.90;;;;;;4529436;31;20123;-64
2022/01/05 12:02:14;;;;;;;8.95;2.63;;;20.10;49.00;;;;;;4515781;31;20259;-64
2022/01/05 12:04:51;;;;;;;11.25;2.35;;;20.10;49.00;;;;;;4529395;31;20282;-63
2022/01/05 12:07:36;;;;;;;10.95;2.70;;;20.10;49.00;;;;;;4529612;31;20434;-64
2022/01/05 12:10:11;;;;;;;9.40;2.85;;;20.20;50.00;;;;;;4529662;31;20186;-64
2022/01/05 12:12:37;;;;;;;8.35;2.42;;;20.20;48.90;;;;;;4529560;31;20124;-65
2022/01/05 12:15:04;;;;;;;7.97;2.35;;;20.30;48.90;;;;;;4530134;31;20135;-65
2022/01/05 12:17:30;;;;;;;12.07;2.70;;;20.40;48.90;;;;;;4529378;31;20131;-65
2022/01/05 12:19:56;;;;;;;9.90;2.63;;;20.40;48.90;;;;;;4529720;31;20120;-65
2022/01/05 12:22:31;;;;;;;10.88;2.50;;;20.50;48.90;;;;;;4529394;31;20123;-65
2022/01/05 12:25:00;;;;;;;12.77;2.67;;;20.50;48.80;;;;;;4529815;31;20124;-65
2022/01/05 12:27:32;;;;;;;10.82;2.83;;;20.60;48.80;;;;;;4529526;31;20199;-64
2022/01/05 12:30:00;;;;;;;8.40;2.45;;;20.70;48.70;;;;;;4529449;31;20266;-64
2022/01/05 12:32:40;;;;;;;9.43;2.55;;;20.80;48.70;;;;;;4515068;31;20164;-64
2022/01/05 12:35:23;;;;;;;9.13;2.42;;;20.80;48.60;;;;;;4529320;31;20135;-64
2022/01/05 12:37:56;;;;;;;12.85;2.45;;;20.90;48.60;;;;;;4545508;31;20121;-63
2022/01/05 12:40:22;;;;;;;11.10;2.15;;;21.00;48.60;;;;;;4545475;31;20135;-63
2022/01/05 12:42:49;;;;;;;12.63;2.38;;;21.00;48.60;;;;;;4537207;31;20160;-64
2022/01/05 12:45:43;;;;;;;10.55;2.72;;;21.10;48.60;;;;;;4507233;31;20158;-64
2022/01/05 12:48:31;;;;;;;11.73;2.67;;;21.10;48.50;;;;;;4537319;31;20140;-62
2022/01/05 12:51:16;;;;;;;7.18;1.95;;;21.20;48.40;;;;;;4528353;31;20127;-62